Time;durP1;ratioP1;P1;durP2;ratioP2;P2;SDS_P1;SDS_P2;PMS_P1;PMS_P2;Temp;Humidity;BMP_temperature;BMP_pressure;BME280_temperature;BME280_humidity;BME280_pressure;Samples;Min_cycle;Max_cycle;Signal;HPM_P1;HPM_P2
2022/09/28 00:01:24;;;;;;;9.85;7.50;;;;;;;9.12;84.36;99374.31;3579910;40;20044;-64
2022/09/28 00:03:56;;;;;;;9.57;7.78;;;;;;;9.11;83.85;99372.63;3580273;40;20058;-63
2022/09/28 00:06:25;;;;;;;8.65;7.72;;;;;;;8.53;84.37;99271.72;3577041;40;20058;-64
2022/09/28 00:08:52;;;;;;;11.13;8.00;;;;;;;9.09;83.99;99369.19;3580635;40;20077;-63
2022/09/28 00:11:20;;;;;;;8.85;7.93;;;;;;;8.41;84.52;99267.31;3581370;40;20117;-63
2022/09/28 00:13:51;;;;;;;10.18;7.60;;;;;;;9.03;84.19;99359.78;3583954;39;20056;-63
2022/09/28 00:16:21;;;;;;;10.05;8.20;;;;;;;9.04;84.03;99362.38;3578741;40;20284;-64
2022/09/28 00:18:47;;;;;;;8.88;7.97;;;;;;;9.14;83.94;99372.38;3580006;40;20328;-64
2022/09/28 00:21:24;;;;;;;8.90;7.88;;;;;;;8.46;83.95;99258.91;3580811;40;20048;-64
2022/09/28 00:24:14;;;;;;;9.73;8.40;;;;;;;9.12;84.28;99359.06;3582731;40;20446;-64
2022/09/28 00:26:52;;;;;;;9.38;8.05;;;;;;;9.19;83.94;99370.16;3577653;40;20053;-63
2022/09/28 00:29:28;;;;;;;9.38;7.75;;;;;;;8.98;83.34;99325.34;3577205;40;20055;-63
2022/09/28 00:32:01;;;;;;;12.82;8.57;;;;;;;9.15;84.59;99353.47;3580396;40;20052;-63
2022/09/28 00:34:37;;;;;;;11.02;9.00;;;;;;;9.12;84.49;99342.13;3580299;40;20430;-64
2022/09/28 00:37:07;;;;;;;9.32;8.30;;;;;;;8.34;84.26;99212.50;3582683;40;21651;-64
2022/09/28 00:39:34;;;;;;;10.40;9.32;;;;;;;9.14;83.76;99333.00;3583042;40;20061;-64
2022/09/28 00:42:02;;;;;;;10.77;8.30;;;;;;;9.26;83.78;99349.91;3579483;40;20402;-64
2022/09/28 00:44:58;;;;;;;12.60;9.25;;;;;;;9.26;84.27;99350.78;3578170;40;20349;-64
2022/09/28 00:47:38;;;;;;;11.30;8.95;;;;;;;9.26;83.61;99341.88;3573222;39;20112;-64
2022/09/28 00:50:27;;;;;;;10.52;9.00;;;;;;;9.24;83.89;99346.53;3578847;40;20056;-63
2022/09/28 00:53:20;;;;;;;9.75;8.75;;;;;;;9.20;83.82;99340.56;3580472;40;20064;-63
2022/09/28 00:55:55;;;;;;;13.27;9.38;;;;;;;9.19;83.39;99336.16;3582493;40;20058;-63
2022/09/28 00:58:30;;;;;;;11.18;9.45;;;;;;;9.18;83.76;99338.97;3580915;39;20055;-64
2022/09/28 01:00:58;;;;;;;12.50;9.65;;;;;;;9.20;84.58;99334.34;3580981;40;20055;-63
2022/09/28 01:03:27;;;;;;;11.45;9.52;;;;;;;9.21;84.54;99334.22;3578096;40;20439;-63
2022/09/28 01:05:59;;;;;;;12.63;9.38;;;;;;;8.72;84.46;99244.34;3578250;40;20056;-64
2022/09/28 01:08:29;;;;;;;12.93;9.70;;;;;;;9.27;84.53;99324.81;3578884;40;20375;-63
2022/09/28 01:10:56;;;;;;;10.85;9.63;;;;;;;9.30;84.52;99329.94;3578261;40;20068;-63
2022/09/28 01:13:24;;;;;;;11.13;9.77;;;;;;;9.28;84.16;99321.16;3580221;40;20055;-63
2022/09/28 01:16:08;;;;;;;11.80;9.65;;;;;;;9.32;83.84;99327.97;3581451;40;20057;-64
2022/09/28 01:18:56;;;;;;;12.02;9.95;;;;;;;9.37;83.57;99341.88;3580291;40;20066;-63
2022/09/28 01:21:24;;;;;;;11.27;9.73;;;;;;;9.40;83.41;99336.25;3578785;40;20072;-63
2022/09/28 01:24:22;;;;;;;13.20;9.73;;;;;;;9.42;83.99;99334.31;3579223;40;20117;-63
2022/09/28 01:27:11;;;;;;;12.13;9.70;;;;;;;9.43;83.46;99337.84;3580960;40;20049;-63
2022/09/28 01:30:04;;;;;;;12.02;10.48;;;;;;;9.46;84.13;99334.91;3580587;40;20056;-63
2022/09/28 01:33:07;;;;;;;13.65;10.65;;;;;;;9.47;83.12;99342.84;3579575;40;20615;-63
2022/09/28 01:35:48;;;;;;;14.32;11.75;;;;;;;9.47;84.20;99342.84;3581679;40;20072;-63
2022/09/28 01:39:01;;;;;;;12.68;10.80;;;;;;;9.50;84.14;99337.22;3578400;40;20048;-63
2022/09/28 01:41:35;;;;;;;12.65;11.20;;;;;;;9.50;83.30;99334.53;3580153;40;20068;-63
2022/09/28 01:44:09;;;;;;;15.82;11.55;;;;;;;9.48;84.27;99339.19;3581341;40;20048;-63
2022/09/28 01:46:48;;;;;;;16.23;12.48;;;;;;;8.60;83.91;99200.63;3586606;40;20137;-63
2022/09/28 01:49:26;;;;;;;16.55;12.65;;;;;;;9.53;84.23;99342.34;3578910;40;20056;-63
2022/09/28 01:52:21;;;;;;;14.90;13.30;;;;;;;9.52;84.40;99356.72;3580259;40;20064;-64
2022/09/28 01:55:10;;;;;;;15.38;13.15;;;;;;;9.52;84.42;99354.06;3584549;40;20054;-64
2022/09/28 01:57:53;;;;;;;17.83;13.95;;;;;;;9.51;84.55;99352.34;3576841;40;20089;-63
2022/09/28 02:00:23;;;;;;;18.67;14.80;;;;;;;9.51;84.40;99348.78;3580089;40;20056;-63
2022/09/28 02:03:15;;;;;;;17.42;15.48;;;;;;;9.51;84.34;99338.94;3581286;40;20430;-63
2022/09/28 02:05:53;;;;;;;17.83;14.75;;;;;;;8.90;84.78;99241.16;3582386;40;20053;-64
2022/09/28 02:08:39;;;;;;;16.33;14.05;;;;;;;9.48;84.25;99331.16;3579714;40;20048;-63
2022/09/28 02:11:14;;;;;;;16.23;14.40;;;;;;;9.56;84.71;99341.25;3585243;40;20284;-64
2022/09/28 02:13:49;;;;;;;18.80;13.75;;;;;;;9.57;84.91;99334.88;3585103;40;20402;-64
2022/09/28 02:16:48;;;;;;;16.13;13.32;;;;;;;9.56;84.62;99340.38;3579362;40;20056;-64
2022/09/28 02:19:22;;;;;;;20.75;12.13;;;;;;;9.09;84.01;99265.50;3579558;40;20395;-63
2022/09/28 02:21:59;;;;;;;14.25;11.98;;;;;;;9.45;83.26;99322.47;3580932;40;20068;-64
2022/09/28 02:24:52;;;;;;;16.92;12.50;;;;;;;9.50;83.73;99336.38;3580237;40;20338;-63
2022/09/28 02:27:59;;;;;;;16.42;11.40;;;;;;;9.46;82.98;99333.09;3583406;40;20048;-63
2022/09/28 02:30:25;;;;;;;13.98;11.10;;;;;;;9.42;82.90;99345.06;3574611;40;20075;-63
2022/09/28 02:33:02;;;;;;;13.93;10.18;;;;;;;9.30;83.21;99330.78;3580889;40;20064;-63
2022/09/28 02:35:28;;;;;;;15.07;10.73;;;;;;;9.30;83.51;99333.47;3584441;40;20126;-63
2022/09/28 02:37:55;;;;;;;11.90;9.80;;;;;;;9.29;82.91;99344.31;3583424;39;20079;-62
2022/09/28 02:40:28;;;;;;;12.88;9.48;;;;;;;9.22;82.84;99325.19;3587505;39;20060;-62
2022/09/28 02:43:15;;;;;;;12.23;9.35;;;;;;;9.23;83.14;99337.63;3584084;40;20060;-62
2022/09/28 02:45:49;;;;;;;10.90;8.90;;;;;;;9.21;83.53;99336.03;3579842;40;20149;-62
2022/09/28 02:48:47;;;;;;;12.38;8.85;;;;;;;9.16;82.81;99335.53;3580258;40;20094;-62
2022/09/28 02:52:12;;;;;;;11.93;9.77;;;;;;;9.12;83.41;99342.13;3581733;40;20060;-62
2022/09/28 02:54:55;;;;;;;10.13;8.20;;;;;;;9.07;83.17;99342.53;3582188;40;20063;-62
2022/09/28 02:58:06;;;;;;;11.85;8.55;;;;;;;8.41;82.71;99235.19;3581206;40;20051;-62
2022/09/28 03:00:49;;;;;;;11.93;8.60;;;;;;;9.02;83.44;99342.88;3581586;40;20060;-63
2022/09/28 03:03:24;;;;;;;12.20;8.23;;;;;;;9.01;82.75;99351.88;3578551;40;20048;-63
2022/09/28 03:06:13;;;;;;;12.02;8.32;;;;;;;9.01;82.85;99354.56;3578199;40;20122;-63
2022/09/28 03:09:02;;;;;;;10.75;8.50;;;;;;;9.00;83.31;99352.00;3580417;40;20052;-62
2022/09/28 03:11:42;;;;;;;8.68;7.05;;;;;;;8.42;83.32;99250.28;3583505;40;20137;-63
2022/09/28 03:14:09;;;;;;;8.90;7.68;;;;;;;8.95;83.32;99340.81;3582497;40;20068;-63
2022/09/28 03:16:35;;;;;;;10.30;7.03;;;;;;;8.44;83.00;99251.03;3588960;39;20125;-63
2022/09/28 03:19:00;;;;;;;10.20;7.53;;;;;;;9.03;83.24;99352.59;3583264;40;20056;-63
2022/09/28 03:21:26;;;;;;;14.95;6.90;;;;;;;9.04;83.12;99345.44;3577175;40;20049;-63
2022/09/28 03:23:52;;;;;;;10.65;6.78;;;;;;;9.04;83.05;99351.66;3580579;40;20362;-62
2022/09/28 03:26:18;;;;;;;8.40;6.55;;;;;;;8.38;83.27;99238.13;3584341;39;20064;-62
2022/09/28 03:28:44;;;;;;;7.20;6.22;;;;;;;9.10;83.27;99354.81;3582828;40;20055;-63
2022/09/28 03:31:09;;;;;;;7.10;6.00;;;;;;;8.47;83.24;99241.88;3580911;40;20048;-62
2022/09/28 03:33:35;;;;;;;8.20;5.68;;;;;;;9.14;82.99;99341.03;3582463;40;20399;-62
2022/09/28 03:36:01;;;;;;;9.35;6.25;;;;;;;9.04;82.70;99330.22;3581978;39;20055;-62
2022/09/28 03:38:26;;;;;;;6.63;5.13;;;;;;;9.16;83.24;99338.22;3581416;40;20062;-62
2022/09/28 03:40:58;;;;;;;7.38;5.53;;;;;;;9.18;82.28;99347.88;3581391;40;20068;-62
2022/09/28 03:43:27;;;;;;;7.88;5.38;;;;;;;8.55;82.66;99253.69;3580237;40;20051;-62
2022/09/28 03:45:57;;;;;;;7.00;5.28;;;;;;;9.18;82.91;99349.69;3581502;40;20080;-62
2022/09/28 03:48:27;;;;;;;9.02;5.30;;;;;;;9.19;82.07;99354.06;3580453;39;20082;-62
2022/09/28 03:50:59;;;;;;;9.88;5.60;;;;;;;9.06;82.49;99338.97;3580078;40;20071;-62
2022/09/28 03:53:25;;;;;;;6.78;4.90;;;;;;;9.14;83.12;99350.91;3585500;40;20048;-62
2022/09/28 03:55:52;;;;;;;10.60;5.30;;;;;;;9.14;82.70;99353.59;3583026;40;20109;-62
2022/09/28 03:58:20;;;;;;;5.57;5.00;;;;;;;9.01;82.84;99335.81;3582628;40;20058;-62
2022/09/28 04:00:46;;;;;;;6.57;5.35;;;;;;;9.12;82.53;99359.06;3580704;40;20100;-62
2022/09/28 04:03:12;;;;;;;5.18;4.68;;;;;;;9.09;81.88;99355.78;3578993;40;20060;-62
2022/09/28 04:05:38;;;;;;;4.80;4.38;;;;;;;9.05;82.36;99353.34;3574135;40;20075;-62
2022/09/28 04:08:03;;;;;;;5.38;4.88;;;;;;;9.06;83.24;99355.03;3580064;40;20064;-62
2022/09/28 04:10:29;;;;;;;6.32;4.88;;;;;;;9.07;83.21;99353.25;3581561;39;20391;-62
2022/09/28 04:12:56;;;;;;;5.43;4.30;;;;;;;8.92;83.16;99331.19;3579736;40;20723;-62
2022/09/28 04:15:25;;;;;;;5.18;4.65;;;;;;;9.03;83.33;99357.97;3580832;40;20068;-62
2022/09/28 04:17:51;;;;;;;6.05;4.35;;;;;;;9.06;82.82;99359.56;3580814;40;20060;-62
2022/09/28 04:20:17;;;;;;;5.63;3.90;;;;;;;9.10;83.21;99358.31;3581143;39;20048;-63
2022/09/28 04:22:43;;;;;;;4.90;3.55;;;;;;;9.10;82.71;99360.16;3579760;40;20153;-63
2022/09/28 04:25:09;;;;;;;5.22;3.35;;;;;;;9.08;83.44;99360.28;3580798;40;20064;-63
2022/09/28 04:30:19;;;;;;;4.00;3.00;;;;;;;9.06;83.57;99355.03;3580370;40;20079;-63
2022/09/28 04:32:46;;;;;;;6.53;3.45;;;;;;;9.08;84.07;99357.63;3580430;40;20438;-62
2022/09/28 04:35:13;;;;;;;4.70;3.00;;;;;;;9.00;83.89;99341.28;3588076;40;20136;-62
2022/09/28 04:37:39;;;;;;;5.80;3.65;;;;;;;9.08;83.46;99352.25;3585425;39;20357;-62
2022/09/28 04:40:05;;;;;;;5.40;3.85;;;;;;;9.06;83.68;99349.69;3585196;40;20372;-62
2022/09/28 04:42:31;;;;;;;5.20;2.53;;;;;;;9.10;83.81;99347.59;3583030;40;20044;-62
2022/09/28 04:44:57;;;;;;;2.55;2.35;;;;;;;9.01;83.62;99335.81;3577453;40;20059;-62
2022/09/28 04:47:24;;;;;;;4.35;2.60;;;;;;;9.06;82.91;99348.84;3578734;40;20393;-62
2022/09/28 04:49:49;;;;;;;4.80;2.97;;;;;;;9.03;83.45;99360.63;3582370;40;20052;-62
2022/09/28 04:52:15;;;;;;;2.90;2.60;;;;;;;8.93;82.72;99332.88;3583827;40;20067;-62
2022/09/28 04:54:41;;;;;;;3.10;2.58;;;;;;;8.93;82.88;99354.31;3582593;40;20060;-62
2022/09/28 04:57:06;;;;;;;3.42;3.13;;;;;;;8.95;83.09;99359.56;3576839;40;20051;-62
2022/09/28 04:59:32;;;;;;;4.60;3.00;;;;;;;8.85;83.65;99340.69;3579855;39;20052;-62
2022/09/28 05:01:58;;;;;;;3.45;2.85;;;;;;;8.87;83.26;99354.78;3581182;40;20150;-62
2022/09/28 05:04:23;;;;;;;4.35;2.80;;;;;;;8.79;83.18;99354.56;3579924;39;20044;-63
2022/09/28 05:06:49;;;;;;;6.55;3.25;;;;;;;8.78;83.42;99367.06;3578516;40;20060;-63
2022/09/28 05:09:15;;;;;;;5.32;3.50;;;;;;;8.69;83.60;99358.91;3583556;40;20052;-62
2022/09/28 05:11:41;;;;;;;5.70;3.35;;;;;;;8.70;83.89;99363.31;3578543;39;20098;-62
2022/09/28 05:14:06;;;;;;;4.38;3.38;;;;;;;8.68;83.37;99370.59;3579641;40;20067;-62
2022/09/28 05:16:32;;;;;;;5.85;3.75;;;;;;;8.66;84.16;99364.50;3576967;40;20307;-63
2022/09/28 05:18:59;;;;;;;4.50;3.58;;;;;;;7.65;83.96;99202.63;3575692;40;20322;-65
2022/09/28 05:21:26;;;;;;;9.10;4.32;;;;;;;8.35;83.66;99324.00;3578584;40;20118;-63
2022/09/28 05:23:54;;;;;;;3.90;3.60;;;;;;;8.65;84.49;99371.69;3578368;40;20064;-63
2022/09/28 05:26:21;;;;;;;4.90;4.10;;;;;;;8.16;84.35;99286.22;3580137;39;20092;-63
2022/09/28 05:28:47;;;;;;;4.95;4.03;;;;;;;8.66;84.30;99368.06;3576817;39;20044;-63
2022/09/28 05:31:13;;;;;;;5.88;3.90;;;;;;;8.66;84.34;99376.09;3581002;40;20063;-63
2022/09/28 05:33:39;;;;;;;9.00;4.63;;;;;;;8.65;83.57;99376.19;3583750;39;20048;-63
2022/09/28 05:36:09;;;;;;;6.55;4.72;;;;;;;8.65;84.19;99365.47;3583145;40;20322;-63
2022/09/28 05:38:35;;;;;;;5.13;4.63;;;;;;;8.00;83.85;99265.13;3581561;40;20055;-63
2022/09/28 05:41:01;;;;;;;5.47;4.97;;;;;;;8.66;83.86;99367.16;3581432;40;20078;-62
2022/09/28 05:43:27;;;;;;;10.23;5.47;;;;;;;8.66;84.02;99361.81;3581090;40;20391;-63
2022/09/28 05:45:52;;;;;;;7.13;5.63;;;;;;;8.67;84.42;99360.88;3579365;39;20072;-63
2022/09/28 05:48:18;;;;;;;6.18;5.53;;;;;;;8.69;83.90;99357.09;3581765;40;20040;-63
2022/09/28 05:50:43;;;;;;;7.18;5.70;;;;;;;8.69;83.52;99366.94;3590445;40;20290;-64
2022/09/28 05:53:10;;;;;;;6.78;6.03;;;;;;;8.69;83.50;99370.50;3586256;40;20049;-63
2022/09/28 05:55:37;;;;;;;6.68;5.65;;;;;;;8.71;83.57;99370.34;3581573;40;20063;-64
2022/09/28 05:58:06;;;;;;;6.28;5.68;;;;;;;7.81;84.19;99214.84;3579720;40;20045;-63
2022/09/28 06:00:34;;;;;;;9.07;6.18;;;;;;;8.69;83.70;99375.84;3579290;40;20072;-63
2022/09/28 06:03:09;;;;;;;7.72;6.70;;;;;;;8.70;84.03;99374.03;3582411;40;20052;-63
2022/09/28 06:05:36;;;;;;;7.38;6.20;;;;;;;8.68;83.83;99381.31;3588573;39;20044;-63
2022/09/28 06:08:04;;;;;;;7.00;6.35;;;;;;;8.68;84.13;99382.16;3581657;40;20048;-63
2022/09/28 06:10:31;;;;;;;6.75;6.05;;;;;;;8.71;83.30;99383.75;3582766;40;20068;-63
2022/09/28 06:12:57;;;;;;;7.60;6.80;;;;;;;8.70;84.03;99390.09;3584758;40;20055;-64
2022/09/28 06:15:27;;;;;;;8.02;6.63;;;;;;;8.11;83.63;99295.44;3579980;39;20084;-63
2022/09/28 06:18:19;;;;;;;8.05;7.18;;;;;;;8.69;83.68;99391.03;3578093;39;20100;-63
2022/09/28 06:20:45;;;;;;;9.05;6.82;;;;;;;8.64;83.29;99393.25;3582491;40;20291;-63
2022/09/28 06:23:13;;;;;;;9.65;7.50;;;;;;;8.61;83.63;99391.66;3584275;40;20063;-64
2022/09/28 06:25:39;;;;;;;11.40;7.35;;;;;;;8.60;83.33;99390.78;3582642;40;20144;-63
2022/09/28 06:28:09;;;;;;;12.85;7.88;;;;;;;8.62;83.52;99393.34;3579625;40;20396;-63
2022/09/28 06:30:37;;;;;;;12.07;8.05;;;;;;;8.63;83.90;99388.84;3579301;40;20074;-63
2022/09/28 06:33:04;;;;;;;10.32;8.35;;;;;;;8.13;83.64;99304.22;3584211;40;20048;-63
2022/09/28 06:35:31;;;;;;;10.15;8.77;;;;;;;8.05;83.62;99290.56;3583052;40;20083;-64
2022/09/28 06:37:59;;;;;;;10.48;9.13;;;;;;;8.65;83.57;99395.78;3580598;40;20051;-63
2022/09/28 06:40:25;;;;;;;13.82;9.75;;;;;;;8.66;84.33;99397.50;3582789;40;20063;-63
2022/09/28 06:42:58;;;;;;;10.52;9.48;;;;;;;8.69;83.83;99405.31;3581672;40;20052;-63
2022/09/28 06:45:27;;;;;;;10.07;9.07;;;;;;;8.71;84.08;99402.50;3584312;40;20112;-63
2022/09/28 06:47:59;;;;;;;11.98;9.40;;;;;;;8.58;84.48;99382.00;3584170;39;21252;-63
2022/09/28 06:50:31;;;;;;;12.38;9.38;;;;;;;8.77;84.17;99410.06;3582777;40;20426;-63
2022/09/28 06:52:58;;;;;;;13.98;9.48;;;;;;;8.81;85.20;99408.84;3581978;40;20061;-63
2022/09/28 06:55:26;;;;;;;12.13;9.85;;;;;;;8.77;84.63;99402.88;3582392;40;20055;-63
2022/09/28 06:58:00;;;;;;;12.27;10.02;;;;;;;8.91;85.52;99415.22;3586085;39;20427;-63
2022/09/28 07:00:31;;;;;;;10.40;9.05;;;;;;;8.99;84.87;99418.16;3580193;40;20056;-63
2022/09/28 07:02:57;;;;;;;11.95;8.82;;;;;;;9.05;85.16;99417.69;3580993;40;20126;-64
2022/09/28 07:05:26;;;;;;;10.57;9.00;;;;;;;9.15;84.82;99419.63;3581204;40;20053;-63
2022/09/28 07:07:56;;;;;;;13.40;9.70;;;;;;;9.25;85.84;99423.28;3582267;40;20070;-63
2022/09/28 07:10:28;;;;;;;11.02;9.27;;;;;;;9.41;85.27;99431.81;3584110;39;20056;-63
2022/09/28 07:12:56;;;;;;;11.00;8.80;;;;;;;9.57;85.89;99427.94;3582248;40;20052;-63
2022/09/28 07:15:23;;;;;;;12.88;8.85;;;;;;;9.76;85.53;99428.16;3581402;40;20052;-63
2022/09/28 07:17:56;;;;;;;10.02;8.18;;;;;;;9.85;84.61;99422.03;3586405;40;20055;-63
2022/09/28 07:20:21;;;;;;;12.80;7.90;;;;;;;9.90;83.68;99403.75;3587802;39;20056;-64
2022/09/28 07:22:56;;;;;;;7.32;6.63;;;;;;;10.14;83.07;99432.22;3583756;39;20067;-63
2022/09/28 07:25:24;;;;;;;8.40;6.63;;;;;;;10.16;82.69;99412.31;3589788;39;20055;-63
2022/09/28 07:27:54;;;;;;;6.78;6.00;;;;;;;10.50;82.09;99438.22;3591021;39;20088;-63
2022/09/28 07:30:20;;;;;;;7.72;6.28;;;;;;;10.09;81.85;99332.44;3577472;40;20052;-64
2022/09/28 07:32:47;;;;;;;7.35;5.70;;;;;;;10.86;80.81;99436.97;3585763;40;20063;-64
2022/09/28 07:35:13;;;;;;;8.60;5.47;;;;;;;10.99;80.62;99434.94;3584127;40;20060;-63
2022/09/28 07:37:38;;;;;;;9.77;5.15;;;;;;;11.13;79.67;99431.03;3581896;40;20052;-64
2022/09/28 07:42:52;;;;;;;7.57;4.88;;;;;;;11.53;78.94;99439.19;3576700;40;20054;-64
2022/09/28 07:45:24;;;;;;;6.40;4.22;;;;;;;11.67;77.73;99446.06;3581611;39;20100;-64
2022/09/28 07:47:54;;;;;;;4.65;4.00;;;;;;;11.77;76.81;99436.16;3579663;40;20053;-64
2022/09/28 07:50:21;;;;;;;7.97;4.45;;;;;;;11.36;76.31;99354.56;3578695;40;20304;-64
2022/09/28 07:52:48;;;;;;;4.75;3.95;;;;;;;11.57;75.44;99369.78;3580533;40;20075;-63
2022/09/28 07:55:14;;;;;;;5.32;4.20;;;;;;;12.06;75.15;99447.03;3584532;40;20088;-63
2022/09/28 07:57:39;;;;;;;4.85;4.07;;;;;;;12.21;74.56;99450.19;3586197;40;20126;-64
2022/09/28 08:00:07;;;;;;;5.38;4.10;;;;;;;12.34;74.26;99449.94;3579744;40;20610;-64
2022/09/28 08:02:34;;;;;;;7.55;3.90;;;;;;;12.43;73.73;99443.72;3583372;40;20082;-63
2022/09/28 08:05:01;;;;;;;5.18;4.22;;;;;;;12.59;73.41;99448.53;3582634;40;20375;-63
2022/09/28 08:07:27;;;;;;;6.32;4.10;;;;;;;12.70;73.51;99444.84;3575450;40;20056;-63
2022/09/28 08:09:53;;;;;;;5.97;3.80;;;;;;;12.93;72.72;99456.16;3578268;40;21327;-63
2022/09/28 08:12:19;;;;;;;4.85;3.78;;;;;;;13.12;72.02;99460.69;3580342;40;20052;-63
2022/09/28 08:14:46;;;;;;;6.68;3.88;;;;;;;13.24;71.65;99457.72;3581904;40;20052;-63
2022/09/28 08:17:12;;;;;;;5.18;4.05;;;;;;;13.41;72.33;99466.03;3579071;40;20430;-63
2022/09/28 08:22:21;;;;;;;4.28;3.67;;;;;;;13.52;69.91;99459.63;3583213;40;20070;-63
2022/09/28 08:24:48;;;;;;;5.35;4.05;;;;;;;13.68;70.43;99468.81;3582144;40;20381;-63
2022/09/28 08:27:15;;;;;;;6.60;3.85;;;;;;;13.84;70.17;99470.03;3576906;40;20129;-63
2022/09/28 08:29:42;;;;;;;6.28;3.75;;;;;;;14.03;69.61;99471.78;3579878;40;20055;-63
2022/09/28 08:32:09;;;;;;;5.95;4.13;;;;;;;14.00;68.75;99470.22;3579813;40;20060;-63
2022/09/28 08:34:40;;;;;;;6.43;3.60;;;;;;;13.24;69.28;99298.50;3581362;40;20082;-63
2022/09/28 08:37:08;;;;;;;6.30;3.65;;;;;;;14.10;67.62;99411.56;3580164;40;20054;-62
2022/09/28 08:39:35;;;;;;;5.25;3.22;;;;;;;14.71;67.02;99484.88;3583620;40;20048;-65
2022/09/28 08:42:09;;;;;;;5.13;3.33;;;;;;;14.92;65.82;99479.16;3578823;40;20303;-62
2022/09/28 08:45:13;;;;;;;3.78;3.35;;;;;;;14.96;65.11;99489.50;3576787;40;20149;-63
2022/09/28 08:48:42;;;;;;;6.00;3.50;;;;;;;14.77;63.69;99497.78;3581200;40;20407;-63
2022/09/28 08:51:46;;;;;;;6.32;3.45;;;;;;;14.71;65.38;99495.69;3577995;40;20076;-63
2022/09/28 08:54:43;;;;;;;4.87;3.50;;;;;;;14.76;64.50;99485.28;3581953;40;20101;-63
2022/09/28 08:57:19;;;;;;;4.75;3.00;;;;;;;14.93;63.93;99492.50;3578804;40;20657;-63
2022/09/28 08:59:55;;;;;;;3.05;2.83;;;;;;;15.06;64.44;99498.41;3580360;40;20060;-63
2022/09/28 09:02:32;;;;;;;6.60;3.13;;;;;;;15.18;63.39;99481.91;3584845;40;20048;-63
2022/09/28 09:05:02;;;;;;;6.78;3.10;;;;;;;15.36;63.30;99498.97;3584154;40;20063;-63
2022/09/28 09:07:47;;;;;;;5.63;3.22;;;;;;;15.38;62.99;99496.97;3582395;40;20056;-62
2022/09/28 09:10:27;;;;;;;4.80;3.40;;;;;;;15.53;63.16;99511.59;3581675;40;20052;-63
2022/09/28 09:13:16;;;;;;;3.78;2.92;;;;;;;15.64;61.90;99506.94;3578048;40;20132;-64
2022/09/28 09:15:54;;;;;;;4.35;2.97;;;;;;;15.82;62.17;99506.91;3577180;40;20052;-63
2022/09/28 09:18:26;;;;;;;5.53;2.95;;;;;;;16.06;61.91;99519.72;3582425;40;20056;-63
2022/09/28 09:20:57;;;;;;;6.57;3.20;;;;;;;15.85;60.22;99520.13;3581633;40;20131;-62
2022/09/28 09:23:52;;;;;;;4.93;3.13;;;;;;;14.89;61.24;99404.56;3580653;40;20076;-63
2022/09/28 09:26:39;;;;;;;3.50;2.90;;;;;;;15.65;62.21;99520.31;3577597;40;20056;-63
2022/09/28 09:29:11;;;;;;;3.10;2.78;;;;;;;15.81;61.76;99525.00;3579321;40;20056;-63
2022/09/28 09:32:29;;;;;;;5.18;3.10;;;;;;;15.99;61.20;99522.25;3574562;40;20064;-63
2022/09/28 09:35:29;;;;;;;3.38;2.85;;;;;;;16.10;61.92;99529.22;3575246;40;20276;-63
2022/09/28 09:38:20;;;;;;;3.95;2.60;;;;;;;16.24;62.36;99531.34;3582058;40;20057;-63
2022/09/28 09:41:30;;;;;;;5.80;3.03;;;;;;;16.42;61.62;99523.94;3581528;40;20056;-63
2022/09/28 09:44:43;;;;;;;5.10;3.08;;;;;;;16.55;59.37;99525.31;3586214;40;20163;-63
2022/09/28 09:47:45;;;;;;;3.78;2.10;;;;;;;16.58;58.97;99530.44;3577836;40;20481;-63
2022/09/28 09:50:34;;;;;;;3.50;2.55;;;;;;;16.63;59.89;99530.78;3580916;40;20052;-63
2022/09/28 09:53:37;;;;;;;3.30;2.45;;;;;;;16.57;57.96;99531.44;3581898;40;20048;-63
2022/09/28 09:56:25;;;;;;;2.72;2.53;;;;;;;16.32;58.05;99534.06;3585605;40;20047;-63
2022/09/28 09:59:00;;;;;;;5.75;2.97;;;;;;;16.00;59.32;99535.63;3578201;40;20118;-64
2022/09/28 10:01:37;;;;;;;5.15;2.63;;;;;;;16.13;61.03;99531.63;3579033;40;20257;-64
2022/09/28 10:04:23;;;;;;;5.72;2.88;;;;;;;16.18;60.04;99529.28;3574069;40;20084;-64
2022/09/28 10:07:00;;;;;;;5.00;2.67;;;;;;;16.01;59.68;99517.50;3583421;40;20180;-64
2022/09/28 10:09:33;;;;;;;4.10;2.47;;;;;;;16.11;60.40;99520.94;3577537;40;20386;-64
2022/09/28 10:12:00;;;;;;;4.38;2.70;;;;;;;16.09;60.04;99535.69;3580109;40;20161;-65
2022/09/28 10:14:26;;;;;;;5.55;3.05;;;;;;;15.12;60.30;99377.81;3579936;40;20051;-64
2022/09/28 10:16:56;;;;;;;2.88;2.50;;;;;;;15.84;60.68;99530.13;3577842;40;20494;-64
2022/09/28 10:19:33;;;;;;;4.82;2.90;;;;;;;15.69;61.87;99523.59;3581157;39;20339;-65
2022/09/28 10:22:04;;;;;;;4.32;2.45;;;;;;;15.08;61.97;99425.16;3579899;40;20060;-65
2022/09/28 10:24:44;;;;;;;3.35;2.63;;;;;;;15.69;61.66;99539.84;3579345;40;20068;-64
2022/09/28 10:27:26;;;;;;;2.45;2.22;;;;;;;15.77;60.84;99526.34;3581570;40;20056;-64
2022/09/28 10:30:08;;;;;;;3.00;2.10;;;;;;;15.86;60.18;99528.09;3581795;40;20064;-64
2022/09/28 10:32:46;;;;;;;2.38;2.17;;;;;;;15.85;60.64;99526.38;3578704;40;20324;-64
2022/09/28 10:35:22;;;;;;;4.65;2.50;;;;;;;16.01;60.45;99525.63;3580803;40;20097;-64
2022/09/28 10:38:05;;;;;;;6.00;2.65;;;;;;;16.19;60.00;99525.56;3579734;40;20068;-64
2022/09/28 10:40:56;;;;;;;3.13;2.42;;;;;;;15.62;59.17;99443.94;3581566;40;20064;-64
2022/09/28 10:43:33;;;;;;;4.28;2.50;;;;;;;16.29;59.69;99514.56;3578025;40;20056;-64
2022/09/28 10:46:22;;;;;;;5.40;2.78;;;;;;;16.63;58.67;99525.38;3583163;40;20063;-64
2022/09/28 10:49:02;;;;;;;3.17;2.30;;;;;;;16.67;58.85;99494.16;3585540;39;20068;-64
2022/09/28 10:51:55;;;;;;;6.57;2.70;;;;;;;16.75;56.86;99524.06;3579764;40;20039;-63
2022/09/28 10:54:30;;;;;;;3.13;2.33;;;;;;;16.66;58.86;99511.47;3585083;40;20040;-63
2022/09/28 10:56:58;;;;;;;4.13;2.22;;;;;;;17.07;57.88;99527.84;3581991;40;20056;-62
2022/09/28 10:59:30;;;;;;;2.85;2.03;;;;;;;17.60;55.72;99521.00;3580318;40;20052;-61
2022/09/28 11:02:24;;;;;;;5.50;2.15;;;;;;;18.04;54.13;99516.00;3578217;40;20080;-62
2022/09/28 11:04:58;;;;;;;6.38;2.10;;;;;;;18.53;51.92;99528.56;3580285;40;20056;-62
2022/09/28 11:07:30;;;;;;;2.55;1.90;;;;;;;18.86;52.92;99521.06;3578105;40;20059;-62
2022/09/28 11:09:59;;;;;;;3.85;1.90;;;;;;;19.24;50.87;99518.41;3578611;40;20068;-62
2022/09/28 11:12:41;;;;;;;3.97;2.03;;;;;;;19.44;50.16;99519.63;3585099;39;20060;-63
2022/09/28 11:15:19;;;;;;;4.47;1.95;;;;;;;19.71;50.07;99520.06;3579430;40;20049;-62
2022/09/28 11:17:45;;;;;;;3.22;1.20;;;;;;;20.07;48.73;99520.16;3579140;40;20114;-62
2022/09/28 11:20:33;;;;;;;4.35;1.70;;;;;;;20.37;46.70;99520.16;3580500;40;20390;-62
2022/09/28 11:23:28;;;;;;;3.05;1.08;;;;;;;19.70;46.77;99502.88;3579070;40;20064;-62
2022/09/28 11:26:04;;;;;;;3.65;1.60;;;;;;;19.29;48.17;99513.28;3581619;40;20048;-62
2022/09/28 11:28:37;;;;;;;3.40;1.67;;;;;;;18.87;49.42;99521.91;3582306;40;20394;-62
2022/09/28 11:31:06;;;;;;;3.67;1.90;;;;;;;17.53;50.59;99357.81;3579656;40;20125;-62
2022/09/28 11:33:38;;;;;;;2.88;1.85;;;;;;;18.40;51.12;99514.69;3582686;40;20276;-62
2022/09/28 11:36:13;;;;;;;4.57;1.63;;;;;;;18.37;52.13;99520.50;3582267;40;20656;-62
2022/09/28 11:39:10;;;;;;;3.60;1.80;;;;;;;17.97;50.83;99519.63;3585813;40;20052;-62
2022/09/28 11:41:36;;;;;;;5.35;1.98;;;;;;;17.64;52.63;99519.66;3579958;40;20327;-62
2022/09/28 11:44:43;;;;;;;7.22;2.20;;;;;;;17.43;53.76;99528.34;3588417;39;20044;-62
2022/09/28 11:47:31;;;;;;;4.00;1.60;;;;;;;17.69;54.04;99519.97;3576566;40;20133;-62
2022/09/28 11:50:03;;;;;;;4.65;1.95;;;;;;;18.29;52.46;99524.94;3578860;40;20083;-62
2022/09/28 11:53:15;;;;;;;5.53;2.22;;;;;;;19.11;52.66;99519.03;3578676;40;20122;-62
2022/09/28 11:55:50;;;;;;;2.25;1.70;;;;;;;18.68;49.64;99436.97;3570709;40;20059;-62
2022/09/28 11:58:39;;;;;;;5.25;1.80;;;;;;;18.57;50.50;99521.75;3580617;40;20445;-62
2022/09/28 12:01:34;;;;;;;3.08;1.88;;;;;;;17.94;51.58;99525.41;3580826;40;20100;-62
2022/09/28 12:04:16;;;;;;;4.32;1.67;;;;;;;17.45;53.76;99510.00;3582589;40;20142;-62
2022/09/28 12:06:54;;;;;;;3.50;2.13;;;;;;;17.27;55.33;99523.75;3579990;40;20365;-62
2022/09/28 12:09:44;;;;;;;3.78;2.08;;;;;;;17.22;55.39;99523.44;3586264;40;20052;-62
2022/09/28 12:12:38;;;;;;;2.10;1.88;;;;;;;17.07;55.91;99514.28;3582348;40;20056;-62
2022/09/28 12:15:22;;;;;;;2.15;1.67;;;;;;;16.85;55.71;99511.19;3583664;40;20063;-62
2022/09/28 12:18:05;;;;;;;5.78;2.00;;;;;;;16.69;55.98;99516.56;3584925;40;20137;-62
2022/09/28 12:20:40;;;;;;;6.05;1.92;;;;;;;16.61;57.13;99511.94;3580768;40;20067;-61